Time;durP1;ratioP1;P1;durP2;ratioP2;P2;SDS_P1;SDS_P2;PMS_P1;PMS_P2;Temp;Humidity;BMP_temperature;BMP_pressure;BME280_temperature;BME280_humidity;BME280_pressure;Samples;Min_cycle;Max_cycle;Signal;HPM_P1;HPM_P2
2022/01/23 00:02:10;;;;;;;85.50;29.07;;;-1.10;1.00;;;;;;4996247;28;20199;-87
2022/01/23 00:04:39;;;;;;;101.47;32.70;;;-1.00;1.00;;;;;;4996665;28;20202;-87
2022/01/23 00:07:09;;;;;;;49.40;18.23;;;-1.00;1.00;;;;;;4996172;28;20226;-86
2022/01/23 00:09:37;;;;;;;27.57;9.50;;;-1.00;1.00;;;;;;4996230;28;20229;-86
2022/01/23 00:12:09;;;;;;;16.07;8.03;;;-1.00;1.00;;;;;;4995982;28;20195;-87
2022/01/23 00:17:22;;;;;;;19.95;8.30;;;-1.00;1.00;;;;;;4996117;28;20649;-87
2022/01/23 00:19:53;;;;;;;22.27;10.00;;;-1.00;1.00;;;;;;4995754;28;20218;-88
2022/01/23 00:22:24;;;;;;;21.13;9.40;;;-0.90;1.00;;;;;;4995845;28;20191;-87
2022/01/23 00:30:26;;;;;;;19.73;9.37;;;-1.00;99.90;;;;;;4976376;28;20222;-87
2022/01/23 00:32:55;;;;;;;69.97;25.80;;;-1.00;99.90;;;;;;4976282;28;20262;-85
2022/01/23 00:35:24;;;;;;;52.00;21.07;;;-1.00;99.90;;;;;;4976633;28;20207;-87
2022/01/23 00:37:52;;;;;;;23.87;11.07;;;-1.00;99.90;;;;;;4976545;28;20222;-86
2022/01/23 00:40:20;;;;;;;16.13;7.43;;;-1.00;99.90;;;;;;4975704;28;20211;-87
2022/01/23 00:42:48;;;;;;;21.03;8.37;;;-1.10;99.90;;;;;;4976171;28;20203;-87
2022/01/23 00:45:31;;;;;;;18.67;8.20;;;-1.10;99.90;;;;;;4975922;28;20199;-87
2022/01/23 00:48:03;;;;;;;15.53;8.07;;;-1.10;99.90;;;;;;4976449;28;20205;-88
2022/01/23 00:50:33;;;;;;;17.20;8.20;;;-1.10;99.90;;;;;;4975377;28;20203;-88
2022/01/23 00:53:01;;;;;;;18.00;7.90;;;-1.10;99.90;;;;;;4976046;28;20401;-86
2022/01/23 00:55:28;;;;;;;20.43;9.23;;;-1.10;99.90;;;;;;4975725;28;20688;-89
2022/01/23 00:57:56;;;;;;;22.73;10.00;;;-1.10;99.90;;;;;;4976206;28;20207;-86
2022/01/23 01:00:45;;;;;;;22.13;10.17;;;-1.10;99.90;;;;;;4975093;28;20219;-87
2022/01/23 01:03:12;;;;;;;25.97;14.17;;;-1.10;1.00;;;;;;4976025;28;20201;-85
2022/01/23 01:05:42;;;;;;;24.77;11.70;;;-1.10;1.00;;;;;;4976250;28;20710;-88
2022/01/23 01:08:10;;;;;;;23.57;13.13;;;-1.10;99.90;;;;;;4976058;28;20218;-86
2022/01/23 01:10:43;;;;;;;50.57;25.57;;;-1.10;99.90;;;;;;4975578;28;20203;-86
2022/01/23 01:13:13;;;;;;;50.97;28.33;;;-1.20;99.90;;;;;;4975860;28;20199;-86
2022/01/23 01:15:57;;;;;;;57.80;34.90;;;-1.30;99.90;;;;;;4975634;28;20656;-86
2022/01/23 01:32:29;;;;;;;23.17;12.07;;;-1.60;99.90;;;;;;4994845;28;20186;-88
2022/01/23 01:35:05;;;;;;;24.50;12.33;;;-1.60;99.90;;;;;;4995010;28;20217;-88
2022/01/23 01:37:34;;;;;;;27.65;12.10;;;-1.60;99.90;;;;;;4994794;28;20217;-88
2022/01/23 01:40:02;;;;;;;28.40;12.50;;;-1.70;99.90;;;;;;4994073;28;20554;-86
2022/01/23 01:42:29;;;;;;;28.17;12.80;;;-1.70;99.90;;;;;;4994310;28;20225;-89
2022/01/23 01:44:57;;;;;;;26.27;12.33;;;-1.70;99.90;;;;;;4994674;28;20202;-86
2022/01/23 01:47:24;;;;;;;29.50;14.60;;;-1.80;99.90;;;;;;4994485;28;20202;-87
2022/01/23 01:49:52;;;;;;;27.17;13.30;;;-1.80;99.90;;;;;;4994519;28;20198;-86
2022/01/23 01:52:20;;;;;;;32.20;14.13;;;-1.80;99.90;;;;;;4994457;28;20199;-87
2022/01/23 01:54:58;;;;;;;29.30;14.37;;;-1.80;99.90;;;;;;4994321;28;20211;-88
2022/01/23 01:57:29;;;;;;;29.47;14.87;;;-1.80;99.90;;;;;;4993877;28;20199;-87
2022/01/23 02:08:24;;;;;;;25.27;14.27;;;-1.80;1.00;;;;;;4991573;28;20236;-87
2022/01/23 02:10:58;;;;;;;25.67;13.20;;;-1.80;1.00;;;;;;4991999;28;20202;-87
2022/01/23 02:13:30;;;;;;;25.20;11.73;;;-1.80;1.00;;;;;;4991974;28;20717;-87
2022/01/23 02:24:09;;;;;;;28.70;11.97;;;-1.80;1.00;;;;;;4975770;28;20237;-87
2022/01/23 02:51:55;;;;;;;36.73;15.83;;;-2.00;1.00;;;;;;4974158;28;20177;-87
2022/01/23 02:54:43;;;;;;;28.87;14.20;;;-2.00;1.00;;;;;;4973428;28;20748;-86
2022/01/23 02:57:12;;;;;;;30.90;14.80;;;-2.10;1.00;;;;;;4973932;28;20294;-85
2022/01/23 02:59:40;;;;;;;35.93;16.17;;;-2.00;1.00;;;;;;4973656;28;20680;-86
2022/01/23 03:02:24;;;;;;;39.60;15.93;;;-2.00;1.00;;;;;;4973793;28;20235;-86
2022/01/23 03:04:53;;;;;;;42.47;16.67;;;-2.00;1.00;;;;;;4973857;28;20285;-86
2022/01/23 03:07:47;;;;;;;35.93;15.40;;;-1.80;1.00;;;;;;4974161;28;20593;-86
2022/01/23 03:10:21;;;;;;;45.43;18.27;;;-1.80;1.00;;;;;;4973734;28;20207;-86
2022/01/23 03:15:56;;;;;;;43.90;17.40;;;-1.60;1.00;;;;;;4973176;28;20655;-86
2022/01/23 03:24:16;;;;;;;30.80;14.43;;;-1.30;1.00;;;;;;4973628;28;20310;-86
2022/01/23 03:26:57;;;;;;;33.47;14.97;;;-1.20;1.00;;;;;;4973786;28;20269;-86
2022/01/23 03:29:27;;;;;;;30.13;14.27;;;-1.00;1.00;;;;;;4984532;28;20241;-86
2022/01/23 03:32:11;;;;;;;26.37;12.33;;;-1.00;1.00;;;;;;4992570;28;20214;-87
2022/01/23 03:34:39;;;;;;;36.53;17.10;;;-0.90;1.00;;;;;;4992799;28;20213;-87
2022/01/23 03:37:07;;;;;;;30.47;14.27;;;-0.80;1.00;;;;;;4992810;28;20221;-88
2022/01/23 03:39:35;;;;;;;29.20;14.40;;;-0.80;1.00;;;;;;4992755;28;20203;-86
2022/01/23 03:42:05;;;;;;;32.43;14.37;;;-0.70;1.00;;;;;;4992589;28;20230;-87
2022/01/23 03:44:36;;;;;;;32.73;15.03;;;-0.70;1.00;;;;;;4992832;28;20210;-86
2022/01/23 03:47:20;;;;;;;35.57;15.00;;;-0.60;1.00;;;;;;4992876;28;20654;-87
2022/01/23 03:49:48;;;;;;;36.03;16.47;;;-0.60;1.00;;;;;;4992954;28;20198;-89
2022/01/23 03:52:17;;;;;;;39.73;18.43;;;-0.60;1.00;;;;;;4992555;28;20277;-88
2022/01/23 03:54:46;;;;;;;51.07;20.53;;;-0.50;1.00;;;;;;4992371;28;20207;-87
2022/01/23 03:57:15;;;;;;;48.30;20.67;;;-0.50;1.00;;;;;;4992598;28;20214;-87
2022/01/23 03:59:43;;;;;;;51.50;22.33;;;-0.50;1.00;;;;;;4992789;28;20737;-87
2022/01/23 04:02:11;;;;;;;45.70;21.67;;;-0.50;1.00;;;;;;4992111;28;20677;-87
2022/01/23 04:04:39;;;;;;;61.37;30.40;;;-0.50;1.00;;;;;;4992597;28;20198;-87
2022/01/23 04:07:10;;;;;;;46.37;21.27;;;-0.40;1.00;;;;;;4992200;28;20629;-87
2022/01/23 04:09:39;;;;;;;48.03;20.97;;;-0.40;1.00;;;;;;4992674;28;20207;-86
2022/01/23 04:12:10;;;;;;;51.33;23.30;;;-0.30;1.00;;;;;;4992142;28;20198;-87
2022/01/23 04:14:47;;;;;;;60.40;26.33;;;-0.30;1.00;;;;;;4992521;28;20293;-86
2022/01/23 04:18:00;;;;;;;58.10;23.30;;;-0.30;1.00;;;;;;4992242;28;20264;-86
2022/01/23 04:20:38;;;;;;;58.30;22.07;;;-0.30;1.00;;;;;;4992070;28;20206;-87
2022/01/23 04:34:19;;;;;;;64.10;19.87;;;-0.20;1.00;;;;;;4957040;29;20683;-85
2022/01/23 04:45:23;;;;;;;69.63;22.27;;;0.00;1.00;;;;;;4938431;29;20203;-87
2022/01/23 05:01:53;;;;;;;93.10;30.83;;;0.10;1.00;;;;;;4975737;28;20290;-86
2022/01/23 05:04:28;;;;;;;81.60;26.30;;;0.10;1.00;;;;;;4975607;28;20715;-87
2022/01/23 05:07:00;;;;;;;76.53;26.83;;;0.10;1.00;;;;;;4976288;28;20202;-87
2022/01/23 05:09:29;;;;;;;67.43;26.40;;;0.20;1.00;;;;;;4976100;28;20198;-87
2022/01/23 05:11:59;;;;;;;56.63;22.20;;;0.20;1.00;;;;;;4975827;28;20214;-86
2022/01/23 05:14:32;;;;;;;57.83;20.57;;;0.20;1.00;;;;;;4976172;28;20206;-87
2022/01/23 05:17:00;;;;;;;72.23;23.23;;;0.30;1.00;;;;;;4975647;28;20199;-86
2022/01/23 05:19:30;;;;;;;58.23;19.60;;;0.30;1.00;;;;;;4975280;28;20610;-85
2022/01/23 05:22:18;;;;;;;39.90;17.10;;;0.40;1.00;;;;;;4975364;28;20637;-87
2022/01/23 05:24:50;;;;;;;45.63;14.97;;;0.50;1.00;;;;;;4975387;28;20255;-87
2022/01/23 05:27:18;;;;;;;48.87;18.63;;;0.50;1.00;;;;;;4975535;28;20199;-86
2022/01/23 05:29:46;;;;;;;39.43;13.33;;;0.60;1.00;;;;;;4975013;28;20239;-87
2022/01/23 05:32:17;;;;;;;36.77;12.10;;;0.60;1.00;;;;;;4975339;28;20287;-86
2022/01/23 05:34:47;;;;;;;39.43;17.30;;;0.70;1.00;;;;;;4975400;28;20265;-86
2022/01/23 05:37:16;;;;;;;43.80;15.60;;;0.70;1.00;;;;;;4974922;28;20215;-87
2022/01/23 05:39:43;;;;;;;46.60;17.63;;;0.70;1.00;;;;;;4975201;28;20283;-86
2022/01/23 05:42:11;;;;;;;41.40;15.77;;;0.80;1.00;;;;;;4974880;28;20222;-87
2022/01/23 05:44:40;;;;;;;48.97;16.40;;;0.80;1.00;;;;;;4975033;28;20205;-86
2022/01/23 05:47:09;;;;;;;49.53;20.97;;;0.80;1.00;;;;;;4974794;28;20199;-86
2022/01/23 05:49:37;;;;;;;53.90;20.63;;;0.90;1.00;;;;;;4975033;28;20215;-86
2022/01/23 05:52:08;;;;;;;50.07;17.77;;;0.90;1.00;;;;;;4974908;28;20203;-86
2022/01/23 05:54:36;;;;;;;58.50;17.90;;;1.00;1.00;;;;;;4974813;28;20200;-85
2022/01/23 05:57:04;;;;;;;50.17;15.87;;;1.00;1.00;;;;;;4974612;28;20198;-87
2022/01/23 05:59:31;;;;;;;46.97;15.00;;;1.00;1.00;;;;;;4974895;28;20207;-85
2022/01/23 06:01:59;;;;;;;96.20;40.47;;;1.10;1.00;;;;;;4974764;28;20262;-84
2022/01/23 06:04:27;;;;;;;45.03;18.63;;;1.10;1.00;;;;;;4974548;28;20199;-84
2022/01/23 06:06:55;;;;;;;46.70;15.20;;;1.10;1.00;;;;;;4974376;28;20660;-84
2022/01/23 06:09:24;;;;;;;47.23;14.50;;;1.20;1.00;;;;;;4974905;28;20208;-85
2022/01/23 06:11:52;;;;;;;53.10;15.77;;;1.20;1.00;;;;;;4974383;28;20667;-84
2022/01/23 06:14:19;;;;;;;46.80;13.97;;;1.20;1.00;;;;;;4974487;28;20195;-84
2022/01/23 06:16:46;;;;;;;63.33;20.27;;;1.30;1.00;;;;;;4974062;28;20207;-85
2022/01/23 06:19:13;;;;;;;136.77;44.13;;;1.30;1.00;;;;;;4974281;28;20203;-85
2022/01/23 06:21:40;;;;;;;156.53;52.80;;;1.30;1.00;;;;;;4974658;28;20215;-84
2022/01/23 06:24:10;;;;;;;159.30;52.90;;;1.40;1.00;;;;;;4974160;28;20195;-85
2022/01/23 06:26:44;;;;;;;131.57;45.20;;;1.40;1.00;;;;;;4974151;28;20199;-84
2022/01/23 06:29:12;;;;;;;173.23;56.77;;;1.40;1.00;;;;;;4974036;28;20223;-85
2022/01/23 06:31:40;;;;;;;91.60;36.47;;;1.40;1.00;;;;;;4974571;28;20203;-84
2022/01/23 06:34:07;;;;;;;45.47;16.57;;;1.50;1.00;;;;;;4974652;28;20203;-84
2022/01/23 06:36:34;;;;;;;48.57;11.40;;;1.50;1.00;;;;;;4973786;28;20234;-85
2022/01/23 06:39:02;;;;;;;38.13;12.07;;;1.50;1.00;;;;;;4974543;28;20257;-85
2022/01/23 06:41:29;;;;;;;30.97;13.13;;;1.50;1.00;;;;;;4974391;28;20227;-84
2022/01/23 06:43:57;;;;;;;40.23;14.80;;;1.60;1.00;;;;;;4973630;28;20199;-84
2022/01/23 06:46:25;;;;;;;44.70;14.37;;;1.60;1.00;;;;;;4973988;28;20254;-85
2022/01/23 06:48:52;;;;;;;49.83;14.47;;;1.60;1.00;;;;;;4981088;28;20175;-87
2022/01/23 06:51:19;;;;;;;45.43;15.27;;;1.60;1.00;;;;;;4975989;28;20242;-87
2022/01/23 06:53:46;;;;;;;45.97;17.00;;;1.60;1.00;;;;;;4978473;28;20193;-86
2022/01/23 06:56:13;;;;;;;42.20;14.50;;;1.70;1.00;;;;;;4983199;28;20196;-86
2022/01/23 06:58:46;;;;;;;33.10;13.57;;;1.70;1.00;;;;;;4979988;28;20567;-88
2022/01/23 07:01:15;;;;;;;40.93;16.37;;;1.70;1.00;;;;;;4977890;28;20258;-87
2022/01/23 07:03:42;;;;;;;41.27;15.80;;;1.70;1.00;;;;;;4978578;28;20237;-89
2022/01/23 07:06:10;;;;;;;31.73;12.13;;;1.70;1.00;;;;;;4982600;28;20656;-87
2022/01/23 07:08:38;;;;;;;38.70;14.03;;;1.70;1.00;;;;;;4984941;28;20207;-86
2022/01/23 07:11:05;;;;;;;50.93;17.47;;;1.70;1.00;;;;;;4983327;28;20206;-87
2022/01/23 07:13:35;;;;;;;44.43;17.47;;;1.80;1.00;;;;;;4981363;28;20191;-87
2022/01/23 07:16:04;;;;;;;54.80;20.43;;;1.80;1.00;;;;;;4982922;28;20254;-87
2022/01/23 07:18:39;;;;;;;41.03;16.40;;;1.80;1.00;;;;;;4981764;28;20191;-85
2022/01/23 07:21:06;;;;;;;44.80;15.93;;;1.80;1.00;;;;;;4984937;28;20222;-84
2022/01/23 07:23:38;;;;;;;37.27;13.53;;;1.80;1.00;;;;;;4983227;28;20195;-87
2022/01/23 07:26:06;;;;;;;39.90;14.53;;;1.80;1.00;;;;;;4985694;28;20284;-88
2022/01/23 07:28:40;;;;;;;56.23;21.17;;;1.80;1.00;;;;;;4989472;28;20234;-85
2022/01/23 07:31:10;;;;;;;50.50;20.00;;;1.90;1.00;;;;;;4993357;28;20201;-87
2022/01/23 07:33:39;;;;;;;48.60;18.77;;;1.90;1.00;;;;;;5002085;28;20328;-84
2022/01/23 07:36:23;;;;;;;61.10;18.73;;;1.90;1.00;;;;;;5001613;28;20242;-88
2022/01/23 07:38:51;;;;;;;47.23;15.47;;;1.90;1.00;;;;;;4998541;28;20186;-87
2022/01/23 07:41:22;;;;;;;47.50;15.77;;;1.90;1.00;;;;;;4999692;28;20221;-86
2022/01/23 07:43:49;;;;;;;52.93;16.47;;;2.00;1.00;;;;;;5000511;28;20296;-86
2022/01/23 07:46:16;;;;;;;42.57;15.67;;;2.00;1.00;;;;;;5000086;28;20202;-87
2022/01/23 07:48:45;;;;;;;52.03;19.27;;;2.00;1.00;;;;;;4999582;28;20199;-88
2022/01/23 07:51:12;;;;;;;84.07;23.47;;;2.10;1.00;;;;;;5001249;28;20187;-85
2022/01/23 07:53:42;;;;;;;48.60;17.87;;;2.20;1.00;;;;;;5002061;28;20254;-86
2022/01/23 07:56:09;;;;;;;50.17;19.40;;;2.20;1.00;;;;;;5001681;28;20199;-86
2022/01/23 07:58:36;;;;;;;59.07;25.03;;;2.30;1.00;;;;;;5002896;28;20179;-87
2022/01/23 08:01:12;;;;;;;67.30;25.53;;;2.30;1.00;;;;;;5003943;28;20215;-86
2022/01/23 08:03:45;;;;;;;70.47;30.37;;;2.40;1.00;;;;;;5006636;28;20203;-87
2022/01/23 08:06:15;;;;;;;85.20;28.30;;;2.40;1.00;;;;;;5006210;28;20182;-84
2022/01/23 08:08:42;;;;;;;74.23;27.17;;;2.50;1.00;;;;;;5004995;28;20285;-88
2022/01/23 08:11:15;;;;;;;61.17;21.93;;;2.50;1.00;;;;;;5002607;28;20196;-86
2022/01/23 08:13:42;;;;;;;59.90;20.67;;;2.50;1.00;;;;;;5005872;28;20196;-86
2022/01/23 08:16:10;;;;;;;53.03;19.40;;;2.50;1.00;;;;;;5008151;28;20594;-85
2022/01/23 08:18:40;;;;;;;60.80;18.87;;;2.50;1.00;;;;;;5007269;28;20214;-89
2022/01/23 08:21:07;;;;;;;58.90;17.70;;;2.50;1.00;;;;;;5008774;28;20226;-87
2022/01/23 08:23:38;;;;;;;62.53;17.17;;;2.60;1.00;;;;;;5007770;28;20209;-86
2022/01/23 08:26:05;;;;;;;65.03;17.70;;;2.60;1.00;;;;;;5008750;28;20199;-90
2022/01/23 08:28:34;;;;;;;69.47;20.70;;;2.60;1.00;;;;;;5006106;28;20214;-89
2022/01/23 08:31:02;;;;;;;92.07;24.70;;;2.70;1.00;;;;;;5008251;28;20195;-88
2022/01/23 08:33:38;;;;;;;81.77;22.53;;;2.70;1.00;;;;;;5008663;28;20218;-90
2022/01/23 08:36:09;;;;;;;61.90;17.20;;;2.80;1.00;;;;;;5006939;28;20182;-86
2022/01/23 08:38:48;;;;;;;63.27;16.93;;;2.80;1.00;;;;;;5007748;28;20541;-86
2022/01/23 08:43:56;;;;;;;53.30;15.50;;;2.90;1.00;;;;;;4996474;28;20198;-86
2022/01/23 08:46:31;;;;;;;42.27;15.17;;;3.00;1.00;;;;;;5005191;28;20198;-86
2022/01/23 08:48:58;;;;;;;40.53;15.33;;;3.00;1.00;;;;;;5008464;28;20182;-85
2022/01/23 08:51:29;;;;;;;46.37;16.03;;;3.10;1.00;;;;;;5004153;28;20229;-86
2022/01/23 08:54:07;;;;;;;50.53;21.63;;;3.10;1.00;;;;;;5008153;28;20203;-88
2022/01/23 08:56:34;;;;;;;52.43;16.40;;;3.20;1.00;;;;;;5007394;28;20224;-86
2022/01/23 08:59:01;;;;;;;54.03;19.87;;;3.30;1.00;;;;;;5009315;28;20181;-85
2022/01/23 09:01:32;;;;;;;53.50;20.70;;;3.40;1.00;;;;;;5006084;28;20230;-87
2022/01/23 09:04:03;;;;;;;52.60;20.20;;;3.50;1.00;;;;;;5007151;28;20187;-86
2022/01/23 09:06:30;;;;;;;52.60;20.00;;;3.50;1.00;;;;;;5004198;28;20192;-86
2022/01/23 09:09:07;;;;;;;77.80;28.53;;;3.70;1.00;;;;;;5002687;28;20249;-87
2022/01/23 09:11:52;;;;;;;43.27;15.40;;;3.80;1.00;;;;;;5002674;28;20190;-84
2022/01/23 09:14:20;;;;;;;38.17;14.33;;;4.00;1.00;;;;;;5003723;28;20187;-86
2022/01/23 09:16:58;;;;;;;41.30;14.63;;;4.10;1.00;;;;;;5000719;28;20207;-85
2022/01/23 09:19:45;;;;;;;37.07;15.00;;;4.10;1.00;;;;;;5007395;28;20205;-90
2022/01/23 09:22:12;;;;;;;34.27;13.13;;;4.20;1.00;;;;;;5006702;28;20226;-87
2022/01/23 09:24:42;;;;;;;28.33;12.40;;;4.20;1.00;;;;;;5002929;28;20174;-88
2022/01/23 09:27:18;;;;;;;;;;;4.20;1.00;;;;;;5004186;28;20202;-86
2022/01/23 09:29:56;;;;;;;45.83;19.13;;;4.30;1.00;;;;;;5000987;28;20198;-84
2022/01/23 09:32:26;;;;;;;;;;;4.30;1.00;;;;;;5002417;28;20229;-86
2022/01/23 09:35:04;;;;;;;26.40;12.10;;;4.30;1.00;;;;;;5001988;28;20194;-88
2022/01/23 09:37:32;;;;;;;35.53;14.97;;;4.30;1.00;;;;;;5002329;28;20191;-86
2022/01/23 09:40:01;;;;;;;42.37;17.33;;;4.20;1.00;;;;;;5005040;28;20193;-87
2022/01/23 09:42:34;;;;;;;43.53;17.43;;;4.20;1.00;;;;;;5002349;28;20229;-86
2022/01/23 09:45:05;;;;;;;38.30;16.23;;;4.20;1.00;;;;;;5004043;28;20610;-87
2022/01/23 09:47:43;;;;;;;37.33;16.33;;;4.20;1.00;;;;;;4999880;28;20245;-85
2022/01/23 09:50:14;;;;;;;42.33;18.03;;;4.20;1.00;;;;;;5000885;28;20245;-85
2022/01/23 09:52:42;;;;;;;42.97;16.70;;;4.20;1.00;;;;;;5000128;28;20202;-86
2022/01/23 09:55:16;;;;;;;43.90;17.57;;;4.20;1.00;;;;;;5000213;28;20201;-90
2022/01/23 09:57:56;;;;;;;34.83;14.00;;;4.30;1.00;;;;;;5002864;28;20282;-88
2022/01/23 10:00:46;;;;;;;36.30;14.97;;;4.30;1.00;;;;;;5004944;28;20202;-84
2022/01/23 10:03:15;;;;;;;36.97;15.03;;;4.40;1.00;;;;;;5005032;28;20703;-89
2022/01/23 10:05:43;;;;;;;43.80;15.43;;;4.50;1.00;;;;;;5001483;28;20205;-86
2022/01/23 10:08:11;;;;;;;29.20;13.97;;;4.60;1.00;;;;;;4998913;28;20602;-87
2022/01/23 10:10:41;;;;;;;36.77;14.00;;;4.70;1.00;;;;;;5001056;28;20257;-85
2022/01/23 10:13:08;;;;;;;36.87;15.33;;;4.80;1.00;;;;;;4996698;28;20258;-87
2022/01/23 10:15:39;;;;;;;98.53;42.73;;;4.90;1.00;;;;;;5003758;28;20179;-91
2022/01/23 10:18:06;;;;;;;60.63;25.93;;;4.90;1.00;;;;;;5000303;28;20191;-86
2022/01/23 10:20:33;;;;;;;57.07;23.20;;;5.00;1.00;;;;;;5000370;28;20198;-89
2022/01/23 10:23:00;;;;;;;42.00;17.43;;;5.00;1.00;;;;;;4996162;28;20214;-87
2022/01/23 10:25:32;;;;;;;34.83;13.53;;;5.00;1.00;;;;;;4998040;28;20267;-89
2022/01/23 10:28:07;;;;;;;53.60;24.30;;;5.10;1.00;;;;;;4996881;28;20187;-86
2022/01/23 10:30:37;;;;;;;122.23;47.23;;;5.20;1.00;;;;;;4975281;28;20191;-87
2022/01/23 10:33:10;;;;;;;53.40;19.23;;;5.30;1.00;;;;;;4977627;28;20268;-87
2022/01/23 10:36:00;;;;;;;53.63;18.90;;;5.50;1.00;;;;;;4959866;28;20180;-88
2022/01/23 10:38:30;;;;;;;64.37;23.63;;;5.50;1.00;;;;;;4962565;29;20201;-88
2022/01/23 10:41:13;;;;;;;90.33;39.97;;;5.60;1.00;;;;;;4959159;29;20277;-85
2022/01/23 10:49:18;;;;;;;70.97;33.20;;;5.80;1.00;;;;;;4975632;28;20187;-85
2022/01/23 10:51:50;;;;;;;32.50;16.70;;;5.80;1.00;;;;;;4979270;28;20649;-86
2022/01/23 10:54:20;;;;;;;29.47;12.00;;;5.80;1.00;;;;;;4982716;28;20191;-85
2022/01/23 10:57:00;;;;;;;52.13;26.13;;;5.90;1.00;;;;;;4980541;28;20204;-85
2022/01/23 10:59:47;;;;;;;58.53;31.67;;;5.90;1.00;;;;;;4980835;28;21172;-86
2022/01/23 11:02:26;;;;;;;94.53;35.47;;;6.00;1.00;;;;;;4978632;28;20171;-83
2022/01/23 11:04:59;;;;;;;102.43;43.57;;;5.90;1.00;;;;;;4978871;28;20184;-89
2022/01/23 11:07:30;;;;;;;80.70;36.97;;;5.90;1.00;;;;;;4978619;28;20212;-84
2022/01/23 11:10:06;;;;;;;51.63;27.10;;;5.80;1.00;;;;;;4982738;28;20211;-88
2022/01/23 11:18:23;;;;;;;33.83;20.93;;;5.70;1.00;;;;;;4962415;28;20272;-87
2022/01/23 11:20:51;;;;;;;49.27;25.53;;;5.70;1.00;;;;;;4960841;29;20197;-84
2022/01/23 11:23:24;;;;;;;35.37;18.20;;;5.80;1.00;;;;;;4962985;28;20201;-86
2022/01/23 11:26:10;;;;;;;37.63;18.57;;;6.00;1.00;;;;;;4961045;29;20529;-83
2022/01/23 11:28:41;;;;;;;26.37;13.30;;;6.30;1.00;;;;;;4960452;28;20299;-83
2022/01/23 11:31:17;;;;;;;17.90;9.90;;;6.40;1.00;;;;;;4963735;28;20191;-86
2022/01/23 11:33:45;;;;;;;43.13;20.73;;;6.40;1.00;;;;;;4964229;28;20557;-83
2022/01/23 11:36:22;;;;;;;34.77;18.07;;;6.50;1.00;;;;;;4981611;28;20256;-86
2022/01/23 11:39:01;;;;;;;17.20;9.60;;;6.60;1.00;;;;;;4982804;28;20249;-84
2022/01/23 11:53:53;;;;;;;25.23;9.53;;;6.20;1.00;;;;;;4984152;28;20248;-87
2022/01/23 11:56:44;;;;;;;25.60;7.83;;;6.10;1.00;;;;;;4981300;28;20196;-85
2022/01/23 11:59:21;;;;;;;20.57;9.30;;;6.00;1.00;;;;;;4979224;28;20188;-83
2022/01/23 12:02:11;;;;;;;30.73;11.03;;;6.00;1.00;;;;;;4981070;28;20195;-86
2022/01/23 12:04:40;;;;;;;21.27;9.47;;;5.90;1.00;;;;;;4981547;28;20212;-85
2022/01/23 12:07:22;;;;;;;30.43;15.93;;;6.00;1.00;;;;;;4983070;28;20196;-84
2022/01/23 12:10:15;;;;;;;30.20;17.77;;;6.00;1.00;;;;;;4981325;28;20258;-89
2022/01/23 12:12:47;;;;;;;42.27;21.93;;;6.10;1.00;;;;;;4961748;29;20280;-86
2022/01/23 12:18:14;;;;;;;42.70;22.93;;;6.10;1.00;;;;;;4977099;28;20274;-89
2022/01/23 12:20:44;;;;;;;39.33;22.67;;;6.00;1.00;;;;;;4983176;28;20679;-86
2022/01/23 12:23:12;;;;;;;34.90;19.10;;;6.00;1.00;;;;;;4981492;28;20543;-84
2022/01/23 12:25:53;;;;;;;24.13;12.20;;;5.90;1.00;;;;;;4978354;28;20231;-86
2022/01/23 12:28:28;;;;;;;26.47;14.40;;;5.90;1.00;;;;;;4981431;28;20200;-87
2022/01/23 12:30:56;;;;;;;41.10;25.73;;;5.90;1.00;;;;;;4982396;28;20189;-85
2022/01/23 12:33:37;;;;;;;36.33;21.83;;;5.80;1.00;;;;;;4980380;28;20198;-87
2022/01/23 12:36:31;;;;;;;28.97;16.60;;;5.80;1.00;;;;;;4981319;28;20184;-86
2022/01/23 12:39:15;;;;;;;30.30;18.70;;;5.80;1.00;;;;;;4977635;28;20198;-84
2022/01/23 12:41:55;;;;;;;23.40;12.77;;;5.80;1.00;;;;;;4981169;28;20560;-88
2022/01/23 12:44:38;;;;;;;32.37;14.47;;;5.80;1.00;;;;;;4980264;28;20660;-85
2022/01/23 12:47:16;;;;;;;23.73;12.77;;;5.70;1.00;;;;;;4959601;28;20018;-86
2022/01/23 12:49:53;;;;;;;21.17;11.40;;;5.60;1.00;;;;;;4984847;28;20196;-83
2022/01/23 12:52:23;;;;;;;26.37;14.67;;;5.60;1.00;;;;;;4979872;28;20188;-84
2022/01/23 12:54:55;;;;;;;32.53;18.87;;;5.60;1.00;;;;;;4988220;28;20196;-85
2022/01/23 12:57:31;;;;;;;28.07;14.67;;;5.60;1.00;;;;;;4978737;28;20211;-84
2022/01/23 13:02:51;;;;;;;25.10;12.50;;;5.50;1.00;;;;;;4968063;28;20219;-84
2022/01/23 13:05:19;;;;;;;22.83;11.50;;;5.50;1.00;;;;;;4983289;28;20279;-85
2022/01/23 13:08:03;;;;;;;30.47;14.10;;;5.50;1.00;;;;;;4979749;28;20199;-84
2022/01/23 13:10:50;;;;;;;24.70;12.77;;;5.50;1.00;;;;;;4981361;28;20283;-85
2022/01/23 13:13:37;;;;;;;41.60;19.43;;;5.40;1.00;;;;;;4985238;28;20198;-85
2022/01/23 13:17:15;;;;;;;31.67;16.00;;;5.40;1.00;;;;;;4982238;28;20211;-85
2022/01/23 13:26:21;;;;;;;29.60;14.07;;;5.40;1.00;;;;;;4982956;28;20548;-84
2022/01/23 13:31:11;;;;;;;26.60;13.23;;;5.30;1.00;;;;;;4981341;28;20339;-85
2022/01/23 13:33:40;;;;;;;26.97;14.13;;;5.30;1.00;;;;;;4961605;29;20558;-85
2022/01/23 13:36:15;;;;;;;26.20;14.43;;;5.40;1.00;;;;;;4980794;28;20200;-85
2022/01/23 13:39:06;;;;;;;27.30;13.70;;;5.30;1.00;;;;;;4981249;28;20191;-84
2022/01/23 13:41:46;;;;;;;32.40;16.37;;;5.30;1.00;;;;;;4982547;28;20215;-87
2022/01/23 13:59:32;;;;;;;28.60;14.03;;;5.20;1.00;;;;;;4962729;29;20235;-85
2022/01/23 14:02:18;;;;;;;93.03;36.67;;;5.20;1.00;;;;;;4961769;29;20210;-84
2022/01/23 14:04:48;;;;;;;72.87;32.17;;;5.20;1.00;;;;;;4965340;28;20207;-83
2022/01/23 14:07:24;;;;;;;43.50;20.30;;;5.10;1.00;;;;;;4981455;28;20188;-87
2022/01/23 14:09:52;;;;;;;45.37;22.80;;;5.10;1.00;;;;;;4987958;28;20187;-85
2022/01/23 14:12:22;;;;;;;67.83;33.87;;;5.10;1.00;;;;;;4979309;28;20196;-86
2022/01/23 14:15:03;;;;;;;56.47;28.77;;;5.10;1.00;;;;;;4980827;28;20188;-87
2022/01/23 14:22:01;;;;;;;40.20;18.97;;;5.00;1.00;;;;;;4993988;28;20230;-85
2022/01/23 14:25:19;;;;;;;41.33;19.43;;;5.00;1.00;;;;;;4809206;29;20222;-86
2022/01/23 14:31:11;;;;;;;53.43;25.70;;;4.90;1.00;;;;;;4947146;29;20228;-87
2022/01/23 14:36:39;;;;;;;47.57;24.33;;;4.80;1.00;;;;;;4966261;29;20288;-86
2022/01/23 14:39:08;;;;;;;50.63;28.50;;;4.70;1.00;;;;;;4962686;28;20274;-85
2022/01/23 14:42:00;;;;;;;62.97;33.47;;;4.70;1.00;;;;;;4971942;28;20184;-86
2022/01/23 14:44:57;;;;;;;58.20;29.40;;;4.60;1.00;;;;;;4996632;28;20204;-84
2022/01/23 14:47:38;;;;;;;37.47;18.57;;;4.60;1.00;;;;;;4936111;29;20219;-86
2022/01/23 14:50:30;;;;;;;29.70;14.93;;;4.50;1.00;;;;;;4936335;29;20709;-85
2022/01/23 14:56:38;;;;;;;31.90;16.30;;;4.50;1.00;;;;;;4993849;28;20657;-84
2022/01/23 15:03:09;;;;;;;24.70;12.50;;;4.40;1.00;;;;;;4993234;28;20203;-86
2022/01/23 15:06:28;;;;;;;20.73;11.30;;;4.40;1.00;;;;;;4934536;29;20231;-85
2022/01/23 15:09:02;;;;;;;23.70;10.90;;;4.40;1.00;;;;;;4966770;28;20187;-85
2022/01/23 15:14:16;;;;;;;23.37;11.80;;;4.30;1.00;;;;;;4974833;28;20567;-84
2022/01/23 15:17:08;;;;;;;22.10;10.97;;;4.30;1.00;;;;;;4987740;28;20194;-88
2022/01/23 15:19:45;;;;;;;25.40;10.33;;;4.20;1.00;;;;;;4927053;28;20296;-85
2022/01/23 15:22:12;;;;;;;21.90;10.20;;;4.20;1.00;;;;;;4968315;28;20192;-85
2022/01/23 15:31:42;;;;;;;41.90;22.77;;;4.20;1.00;;;;;;4906367;29;20390;-87
2022/01/23 15:37:14;;;;;;;24.37;12.00;;;4.10;1.00;;;;;;4899115;29;20201;-84
2022/01/23 15:40:02;;;;;;;25.17;12.07;;;4.10;1.00;;;;;;4974398;28;20210;-87
2022/01/23 15:45:36;;;;;;;33.07;14.20;;;4.10;1.00;;;;;;5008754;28;20202;-87
2022/01/23 15:48:03;;;;;;;30.77;13.87;;;4.10;1.00;;;;;;5008723;28;20232;-83
2022/01/23 15:50:33;;;;;;;32.93;15.47;;;4.10;1.00;;;;;;4992296;28;20241;-83
2022/01/23 15:56:12;;;;;;;137.37;48.33;;;4.00;1.00;;;;;;5015567;28;20213;-87
2022/01/23 16:05:25;;;;;;;46.00;20.93;;;4.10;1.00;;;;;;4819788;29;20232;-85
2022/01/23 16:07:53;;;;;;;46.67;21.90;;;4.00;1.00;;;;;;4977411;28;20256;-85
2022/01/23 16:10:21;;;;;;;41.63;19.53;;;4.00;1.00;;;;;;4988232;28;20247;-86
2022/01/23 16:12:50;;;;;;;34.03;16.37;;;4.00;1.00;;;;;;4977077;28;20276;-85
2022/01/23 16:16:00;;;;;;;29.80;14.70;;;3.90;1.00;;;;;;5005354;28;20209;-89
2022/01/23 16:18:36;;;;;;;44.13;20.60;;;3.90;1.00;;;;;;5005517;28;20179;-88
2022/01/23 16:21:09;;;;;;;45.73;20.53;;;3.90;1.00;;;;;;4992837;28;20197;-87
2022/01/23 16:30:12;;;;;;;39.67;18.37;;;3.90;1.00;;;;;;4856385;28;20237;-86
2022/01/23 16:32:39;;;;;;;29.13;13.97;;;3.90;1.00;;;;;;4993886;28;20205;-85
2022/01/23 16:35:08;;;;;;;30.97;15.10;;;3.80;1.00;;;;;;4994259;28;20195;-85
2022/01/23 16:37:35;;;;;;;27.43;12.97;;;3.80;1.00;;;;;;4995177;28;20205;-85
2022/01/23 16:40:02;;;;;;;25.90;12.50;;;3.90;1.00;;;;;;4995732;28;20206;-85
2022/01/23 16:42:29;;;;;;;23.07;11.87;;;3.80;1.00;;;;;;4994770;28;20202;-85
2022/01/23 16:44:56;;;;;;;26.87;12.20;;;3.90;1.00;;;;;;4994212;28;20276;-86
2022/01/23 16:47:24;;;;;;;25.13;12.23;;;3.90;1.00;;;;;;4994800;28;20601;-83
2022/01/23 16:49:51;;;;;;;34.50;14.63;;;3.90;1.00;;;;;;4994979;28;20206;-84